Accueil
METAR-TAF:

METAR-TAF

Aéroports :

Aéroport de Saint-Étienne-Loire

Saint-Etienne, France

latitude: 45-32N, longitude: 004-18E, altitude: 404 m

Observation

Le bulletin a été fait il y a 28 minutes, à 11:00 UTC
Vent 5 kt de sud/sud-est, variant entre est/sud-est et sud
Température 16°C
Humidité 23%
Pression 1028 hPa
Visibilité 10 km ou plus
pas de nuages en-dessous de 1500 mètres et pas de cumulonimbus.

METAR: LFMH 161100Z AUTO 15005KT 120V180 CAVOK 16/M05 Q1028 NOSIG

Heure: 12:28 (11:28 UTC)

Prévision

Le bulletin a été fait il y a 3 heures et 28 minutes, à 08:00 UTC
Prévision valable du 16 à 09 UTC au 17 à 09 UTC
Vent 7 kt de sud
Visibilité 10 km ou plus
pas de nuages en-dessous de 1500 mètres et pas de cumulonimbus.

TAF: LFMH 160800Z 1609/1709 17007KT CAVOK

Observations et prévisions météorologiques de plus de 4000 aéroports (messages METAR et TAF).

Les stations disponibles sont représentées par des disques jaunes et rouges sur la carte.

Passer la souris dessus pour voir le nom de la station.

Cliquer dessus pour voir les observations et prévisions météorologiques.

Pour changer de carte: cliquez sur les boutons verts avec une croix noire pour zoomer, sur le bouton vert avec un tiret pour effectuer un zoom arrière, ou sur les flèches vertes pour les cartes adjacentes.


METAR-TAF: